Time,TemperatureF,DewpointF,PressureIn,WindDirection,WindDirectionDegrees,WindSpeedMPH,WindSpeedGustMPH,Humidity,HourlyPrecipIn,Conditions,Clouds,dailyrainin,SolarRadiationWatts/m^2,SoftwareType,DateUTC
2013-05-23 01:14:00,68.6,66.0,29.81,NW,322,0.0,1.0,92,0.00,,,0.00,0,weatherlink.com 1.10,2013-05-23 05:14:00,
2013-05-23 01:28:00,68.2,66.0,29.81,NW,322,0.0,1.0,92,0.00,,,0.00,0,weatherlink.com 1.10,2013-05-23 05:28:00,
2013-05-23 01:43:00,67.8,66.0,29.80,NW,322,0.0,0.0,92,0.00,,,0.00,0,weatherlink.com 1.10,2013-05-23 05:43:00,
2013-05-23 01:57:00,67.4,65.0,29.80,NW,322,0.0,1.0,92,0.00,,,0.00,0,weatherlink.com 1.10,2013-05-23 05:57:00,
2013-05-23 02:13:00,67.0,65.0,29.79,NW,322,0.0,1.0,92,0.00,,,0.00,0,weatherlink.com 1.10,2013-05-23 06:13:00,
2013-05-23 02:29:00,66.5,64.0,29.79,NW,320,0.0,1.0,92,0.00,,,0.00,0,weatherlink.com 1.10,2013-05-23 06:29:00,
2013-05-23 02:44:00,66.0,63.0,29.78,NW,320,0.0,1.0,91,0.00,,,0.00,0,weatherlink.com 1.10,2013-05-23 06:44:00,
2013-05-23 02:59:00,65.8,63.0,29.79,NW,320,0.0,0.0,90,0.00,,,0.00,0,weatherlink.com 1.10,2013-05-23 06:59:00,
2013-05-23 03:14:00,65.5,63.0,29.79,NW,320,0.0,0.0,90,0.00,,,0.00,0,weatherlink.com 1.10,2013-05-23 07:14:00,
2013-05-23 03:29:00,65.0,62.0,29.79,NW,320,0.0,0.0,90,0.00,,,0.00,0,weatherlink.com 1.10,2013-05-23 07:29:00,
2013-05-23 03:44:00,64.6,62.0,29.79,NW,320,0.0,2.0,90,0.00,,,0.00,0,weatherlink.com 1.10,2013-05-23 07:44:00,
2013-05-23 03:59:00,64.2,61.0,29.80,NW,320,0.0,0.0,89,0.00,,,0.00,0,weatherlink.com 1.10,2013-05-23 07:59:00,
2013-05-23 04:14:00,63.9,61.0,29.80,NW,320,0.0,0.0,90,0.00,,,0.00,0,weatherlink.com 1.10,2013-05-23 08:14:00,
2013-05-23 04:29:00,63.6,61.0,29.81,NW,320,0.0,0.0,90,0.00,,,0.00,0,weatherlink.com 1.10,2013-05-23 08:29:00,
2013-05-23 04:44:00,63.3,60.0,29.80,NW,320,0.0,1.0,90,0.00,,,0.00,0,weatherlink.com 1.10,2013-05-23 08:44:00,
2013-05-23 04:59:00,63.1,61.0,29.81,NW,320,0.0,2.0,91,0.00,,,0.00,0,weatherlink.com 1.10,2013-05-23 08:59:00,
2013-05-23 05:13:00,63.0,60.0,29.81,West,277,0.0,1.0,91,0.00,,,0.00,0,weatherlink.com 1.10,2013-05-23 09:13:00,
2013-05-23 05:29:00,62.9,60.0,29.81,West,281,0.0,3.0,91,0.00,,,0.00,0,weatherlink.com 1.10,2013-05-23 09:29:00,
2013-05-23 05:44:00,63.0,61.0,29.82,West,281,0.0,1.0,92,0.00,,,0.00,0,weatherlink.com 1.10,2013-05-23 09:44:00,
2013-05-23 05:59:00,63.1,61.0,29.83,WNW,297,0.0,1.0,92,0.00,,,0.00,9,weatherlink.com 1.10,2013-05-23 09:59:00,
2013-05-23 06:14:00,63.1,61.0,29.83,WNW,297,0.0,1.0,92,0.00,,,0.00,12,weatherlink.com 1.10,2013-05-23 10:14:00,
2013-05-23 06:29:00,63.4,61.0,29.84,WNW,297,0.0,1.0,93,0.00,,,0.00,16,weatherlink.com 1.10,2013-05-23 10:29:00,
2013-05-23 06:44:00,63.7,62.0,29.84,NW,306,0.0,4.0,93,0.00,,,0.00,39,weatherlink.com 1.10,2013-05-23 10:44:00,
2013-05-23 06:59:00,64.1,62.0,29.84,WNW,303,0.0,1.0,94,0.00,,,0.00,51,weatherlink.com 1.10,2013-05-23 10:59:00,
2013-05-23 07:14:00,64.8,63.0,29.84,NNW,330,1.0,2.0,94,0.00,,,0.00,63,weatherlink.com 1.10,2013-05-23 11:14:00,
2013-05-23 07:28:00,65.5,64.0,29.84,SSW,200,0.0,3.0,94,0.00,,,0.00,65,weatherlink.com 1.10,2013-05-23 11:28:00,
2013-05-23 07:44:00,66.2,65.0,29.84,SSW,208,1.0,2.0,94,0.00,,,0.00,70,weatherlink.com 1.10,2013-05-23 11:44:00,
2013-05-23 07:59:00,66.9,65.0,29.84,NW,309,1.0,3.0,92,0.00,,,0.00,81,weatherlink.com 1.10,2013-05-23 11:59:00,
2013-05-23 08:14:00,68.1,65.0,29.84,SSW,206,0.0,4.0,89,0.00,,,0.00,86,weatherlink.com 1.10,2013-05-23 12:14:00,
2013-05-23 08:28:00,70.6,66.0,29.83,NNE,32,0.0,6.0,84,0.00,,,0.00,141,weatherlink.com 1.10,2013-05-23 12:28:00,
2013-05-23 08:44:00,71.4,65.0,29.83,North,5,1.0,3.0,79,0.00,,,0.00,156,weatherlink.com 1.10,2013-05-23 12:44:00,
2013-05-23 08:59:00,71.7,66.0,29.83,North,5,0.0,2.0,81,0.00,,,0.00,144,weatherlink.com 1.10,2013-05-23 12:59:00,
2013-05-23 09:29:00,72.0,65.0,29.83,WSW,256,1.0,4.0,79,0.00,,,0.00,221,weatherlink.com 1.10,2013-05-23 13:29:00,
2013-05-23 09:44:00,74.0,67.0,29.82,North,350,2.0,4.0,78,0.00,,,0.00,230,weatherlink.com 1.10,2013-05-23 13:44:00,
2013-05-23 09:59:00,73.2,67.0,29.82,NNW,331,1.0,6.0,80,0.00,,,0.00,207,weatherlink.com 1.10,2013-05-23 13:59:00,
2013-05-23 10:14:00,73.1,66.0,29.83,NW,325,4.0,5.0,78,0.00,,,0.00,141,weatherlink.com 1.10,2013-05-23 14:14:00,
2013-05-23 10:28:00,72.8,66.0,29.83,North,351,0.0,5.0,80,0.00,,,0.00,142,weatherlink.com 1.10,2013-05-23 14:28:00,
2013-05-23 10:44:00,72.6,67.0,29.83,NNW,341,1.0,4.0,81,0.00,,,0.00,105,weatherlink.com 1.10,2013-05-23 14:44:00,
2013-05-23 10:59:00,72.3,67.0,29.83,NNW,337,1.0,4.0,82,0.00,,,0.00,109,weatherlink.com 1.10,2013-05-23 14:59:00,
2013-05-23 11:29:00,72.1,67.0,29.84,NW,305,0.0,6.0,83,0.00,,,0.00,149,weatherlink.com 1.10,2013-05-23 15:29:00,
2013-05-23 11:44:00,72.2,67.0,29.83,NW,318,2.0,4.0,83,0.00,,,0.00,204,weatherlink.com 1.10,2013-05-23 15:44:00,
2013-05-23 11:59:00,73.0,67.0,29.83,NNW,331,2.0,6.0,82,0.00,,,0.00,220,weatherlink.com 1.10,2013-05-23 15:59:00,
2013-05-23 12:14:00,73.4,67.0,29.83,North,349,0.0,6.0,81,0.00,,,0.00,190,weatherlink.com 1.10,2013-05-23 16:14:00,
2013-05-23 12:29:00,73.3,67.0,29.82,SSE,161,0.0,4.0,81,0.00,,,0.00,236,weatherlink.com 1.10,2013-05-23 16:29:00,
2013-05-23 12:44:00,73.1,68.0,29.82,NNW,333,2.0,6.0,83,0.00,,,0.00,202,weatherlink.com 1.10,2013-05-23 16:44:00,
2013-05-23 13:00:00,72.8,68.0,29.82,North,5,0.0,4.0,84,0.00,,,0.00,255,weatherlink.com 1.10,2013-05-23 17:00:00,
2013-05-23 13:14:00,72.8,67.0,29.81,WNW,289,0.0,4.0,82,0.00,,,0.00,185,weatherlink.com 1.10,2013-05-23 17:14:00,
2013-05-23 13:29:00,73.1,67.0,29.80,NW,321,1.0,5.0,80,0.00,,,0.00,220,weatherlink.com 1.10,2013-05-23 17:29:00,
2013-05-23 13:45:00,73.2,67.0,29.80,NW,318,0.0,2.0,81,0.00,,,0.00,109,weatherlink.com 1.10,2013-05-23 17:45:00,
2013-05-23 14:00:00,73.0,67.0,29.80,NNW,348,1.0,3.0,82,0.00,,,0.00,39,weatherlink.com 1.10,2013-05-23 18:00:00,
2013-05-23 14:15:00,72.6,67.0,29.80,North,355,0.0,3.0,83,0.01,,,0.01,72,weatherlink.com 1.10,2013-05-23 18:15:00,
2013-05-23 14:30:00,71.8,68.0,29.81,WNW,288,1.0,3.0,86,0.02,,,0.02,116,weatherlink.com 1.10,2013-05-23 18:30:00,
2013-05-23 14:45:00,70.4,68.0,29.80,North,355,0.0,3.0,91,0.02,,,0.02,267,weatherlink.com 1.10,2013-05-23 18:45:00,
2013-05-23 15:00:00,71.1,68.0,29.80,NW,313,2.0,4.0,91,0.02,,,0.02,278,weatherlink.com 1.10,2013-05-23 19:00:00,
2013-05-23 15:15:00,72.3,69.0,29.79,WNW,286,1.0,4.0,89,0.01,,,0.02,489,weatherlink.com 1.10,2013-05-23 19:15:00,
2013-05-23 15:30:00,74.5,69.0,29.78,North,349,2.0,3.0,84,0.00,,,0.02,186,weatherlink.com 1.10,2013-05-23 19:30:00,
2013-05-23 15:45:00,73.0,69.0,29.78,North,350,1.0,5.0,86,0.00,,,0.02,98,weatherlink.com 1.10,2013-05-23 19:45:00,
2013-05-23 15:59:00,72.3,68.0,29.78,NW,324,0.0,2.0,85,0.00,,,0.02,69,weatherlink.com 1.10,2013-05-23 19:59:00,
2013-05-23 16:14:00,72.0,67.0,29.79,NW,318,0.0,3.0,85,0.00,,,0.02,33,weatherlink.com 1.10,2013-05-23 20:14:00,
2013-05-23 16:30:00,71.8,68.0,29.79,NW,317,0.0,1.0,86,0.01,,,0.03,21,weatherlink.com 1.10,2013-05-23 20:30:00,
2013-05-23 16:44:00,71.3,67.0,29.80,NW,317,0.0,1.0,87,0.02,,,0.04,7,weatherlink.com 1.10,2013-05-23 20:44:00,
2013-05-23 16:59:00,70.5,67.0,29.79,NNW,340,0.0,1.0,88,0.05,,,0.07,16,weatherlink.com 1.10,2013-05-23 20:59:00,
2013-05-23 17:15:00,69.8,67.0,29.79,NNW,340,0.0,1.0,90,0.10,,,0.12,39,weatherlink.com 1.10,2013-05-23 21:15:00,
2013-05-23 17:30:00,69.5,67.0,29.79,NNW,340,0.0,1.0,91,0.13,,,0.16,54,weatherlink.com 1.10,2013-05-23 21:30:00,
2013-05-23 17:45:00,69.1,67.0,29.78,NNW,340,0.0,0.0,92,0.16,,,0.20,42,weatherlink.com 1.10,2013-05-23 21:45:00,
2013-05-23 18:00:00,68.9,67.0,29.78,NNW,340,0.0,2.0,92,0.15,,,0.23,14,weatherlink.com 1.10,2013-05-23 22:00:00,
2013-05-23 18:14:00,68.5,67.0,29.79,NNW,340,0.0,2.0,93,0.13,,,0.25,23,weatherlink.com 1.10,2013-05-23 22:14:00,
2013-05-23 18:30:00,68.3,66.0,29.78,NNW,340,0.0,2.0,93,0.12,,,0.28,32,weatherlink.com 1.10,2013-05-23 22:30:00,
2013-05-23 18:45:00,68.0,66.0,29.78,NNW,340,0.0,2.0,94,0.10,,,0.30,19,weatherlink.com 1.10,2013-05-23 22:45:00,
2013-05-23 19:00:00,67.9,66.0,29.78,NNW,340,0.0,0.0,94,0.09,,,0.32,18,weatherlink.com 1.10,2013-05-23 23:00:00,
2013-05-23 19:15:00,67.9,66.0,29.78,WNW,286,0.0,2.0,94,0.08,,,0.34,100,weatherlink.com 1.10,2013-05-23 23:15:00,
2013-05-23 19:30:00,67.8,66.0,29.77,NNE,15,1.0,3.0,94,0.08,,,0.36,39,weatherlink.com 1.10,2013-05-23 23:30:00,
2013-05-23 20:00:00,66.8,65.0,29.77,South,181,1.0,3.0,94,0.07,,,0.39,5,weatherlink.com 1.10,2013-05-24 00:00:00,
2013-05-23 20:15:00,66.4,65.0,29.77,NE,42,0.0,4.0,94,0.06,,,0.40,0,weatherlink.com 1.10,2013-05-24 00:15:00,
2013-05-23 20:30:00,66.2,65.0,29.77,SSW,205,0.0,2.0,94,0.05,,,0.41,0,weatherlink.com 1.10,2013-05-24 00:30:00,
2013-05-23 20:45:00,65.9,65.0,29.78,WNW,298,0.0,3.0,95,0.04,,,0.42,0,weatherlink.com 1.10,2013-05-24 00:45:00,
2013-05-23 21:00:00,65.8,64.0,29.78,SW,235,0.0,2.0,95,0.03,,,0.42,0,weatherlink.com 1.10,2013-05-24 01:00:00,
2013-05-23 21:15:00,65.6,64.0,29.76,NNW,340,0.0,2.0,95,0.02,,,0.42,0,weatherlink.com 1.10,2013-05-24 01:15:00,
2013-05-23 21:30:00,65.5,64.0,29.76,NNW,340,0.0,0.0,95,0.01,,,0.42,0,weatherlink.com 1.10,2013-05-24 01:30:00,
2013-05-23 21:45:00,65.4,64.0,29.76,NNE,26,0.0,2.0,95,0.00,,,0.42,0,weatherlink.com 1.10,2013-05-24 01:45:00,
2013-05-23 22:00:00,65.4,64.0,29.76,SE,132,0.0,1.0,95,0.00,,,0.42,0,weatherlink.com 1.10,2013-05-24 02:00:00,
2013-05-23 22:15:00,65.4,64.0,29.76,ESE,110,0.0,2.0,96,0.00,,,0.42,0,weatherlink.com 1.10,2013-05-24 02:15:00,
2013-05-23 22:30:00,65.5,64.0,29.75,NW,321,0.0,3.0,96,0.00,,,0.42,0,weatherlink.com 1.10,2013-05-24 02:30:00,
2013-05-23 22:45:00,65.5,64.0,29.75,NW,321,0.0,0.0,96,0.00,,,0.42,0,weatherlink.com 1.10,2013-05-24 02:45:00,
2013-05-23 23:00:00,65.6,65.0,29.75,NW,321,0.0,0.0,96,0.00,,,0.42,0,weatherlink.com 1.10,2013-05-24 03:00:00,
2013-05-23 23:15:00,65.6,65.0,29.75,NW,321,0.0,0.0,96,0.00,,,0.42,0,weatherlink.com 1.10,2013-05-24 03:15:00,
2013-05-23 23:30:00,65.5,64.0,29.74,NW,321,0.0,0.0,96,0.02,,,0.44,0,weatherlink.com 1.10,2013-05-24 03:30:00,
2013-05-23 23:45:00,65.5,64.0,29.73,NW,321,0.0,0.0,96,0.02,,,0.44,0,weatherlink.com 1.10,2013-05-24 03:45:00,